Time;durP1;ratioP1;P1;durP2;ratioP2;P2;SDS_P1;SDS_P2;PMS_P1;PMS_P2;Temp;Humidity;BMP_temperature;BMP_pressure;BME280_temperature;BME280_humidity;BME280_pressure;Samples;Min_cycle;Max_cycle;Signal;HPM_P1;HPM_P2
2024/02/01 00:00:23;;;;;;;2.22;1.42;;;;;;;4.24;100.00;99097.75;15289023;19;20034;-51
2024/02/01 00:05:47;;;;;;;1.95;1.40;;;;;;;4.21;100.00;99065.94;15292181;19;20362;-49
2024/02/01 00:11:14;;;;;;;2.03;1.58;;;;;;;4.11;100.00;99075.53;15029908;19;5002231;-53
2024/02/01 00:16:40;;;;;;;3.65;1.60;;;;;;;4.02;100.00;99082.34;15290362;19;20030;-51
2024/02/01 00:22:05;;;;;;;3.20;1.40;;;;;;;4.26;100.00;99089.66;15285966;19;20018;-52
2024/02/01 00:27:49;;;;;;;7.25;1.40;;;;;;;4.43;100.00;99099.16;15282709;19;20590;-51
2024/02/01 00:33:15;;;;;;;3.05;1.40;;;;;;;4.58;100.00;99115.94;15278927;19;20467;-52
2024/02/01 00:38:39;;;;;;;2.65;1.40;;;;;;;4.68;100.00;99116.16;15283176;19;20014;-49
2024/02/01 00:44:06;;;;;;;2.53;1.50;;;;;;;4.74;100.00;99126.41;15283083;19;20029;-50
2024/02/01 00:49:34;;;;;;;2.53;1.33;;;;;;;4.85;100.00;99129.19;15285447;19;20101;-48
2024/02/01 00:55:09;;;;;;;3.50;1.45;;;;;;;4.65;100.00;99121.69;15285072;19;20351;-49
2024/02/01 01:00:36;;;;;;;2.70;1.50;;;;;;;4.48;100.00;99121.06;15280540;19;20018;-52
2024/02/01 01:06:01;;;;;;;2.55;1.30;;;;;;;4.44;100.00;99130.22;15281121;19;20022;-49
2024/02/01 01:11:26;;;;;;;3.58;1.60;;;;;;;4.39;100.00;99135.88;15281709;19;20037;-52
2024/02/01 01:16:53;;;;;;;2.08;1.48;;;;;;;4.48;100.00;99131.72;15287527;19;20484;-52
2024/02/01 01:22:17;;;;;;;1.42;1.20;;;;;;;4.57;100.00;99119.56;15282494;19;20086;-51
2024/02/01 01:27:42;;;;;;;4.13;1.30;;;;;;;4.63;100.00;99106.66;15280258;19;20019;-51
2024/02/01 01:33:09;;;;;;;2.25;1.20;;;;;;;4.74;100.00;99083.72;15279702;19;20021;-51
2024/02/01 01:38:34;;;;;;;1.88;1.10;;;;;;;4.83;100.00;99072.38;15272375;19;20020;-52
2024/02/01 01:43:59;;;;;;;1.48;1.00;;;;;;;4.92;100.00;99050.34;15276142;19;20035;-53
2024/02/01 01:49:27;;;;;;;2.42;1.40;;;;;;;4.99;100.00;99032.06;15282100;19;20018;-52
2024/02/01 01:54:57;;;;;;;1.95;1.30;;;;;;;5.05;100.00;99033.44;15293070;19;20029;-54
2024/02/01 02:00:23;;;;;;;1.35;1.20;;;;;;;5.09;100.00;99025.09;15296956;19;20019;-52
2024/02/01 02:05:51;;;;;;;2.17;1.00;;;;;;;5.14;100.00;99024.75;15294259;19;20018;-50
2024/02/01 02:11:15;;;;;;;3.50;1.00;;;;;;;5.17;100.00;99029.03;15295648;19;20375;-54
2024/02/01 02:16:40;;;;;;;2.13;1.00;;;;;;;5.22;100.00;99029.53;15300303;19;20106;-56
2024/02/01 02:22:12;;;;;;;1.15;0.90;;;;;;;5.27;100.00;99047.91;15292055;19;20024;-55
2024/02/01 02:27:37;;;;;;;5.15;0.85;;;;;;;5.33;100.00;99034.94;15299357;19;20351;-52
2024/02/01 02:33:01;;;;;;;2.28;1.10;;;;;;;5.40;100.00;99024.66;15293681;19;20423;-53
2024/02/01 02:38:29;;;;;;;2.08;0.80;;;;;;;5.45;100.00;99030.53;15291000;19;20019;-51
2024/02/01 02:43:55;;;;;;;1.65;0.85;;;;;;;5.47;100.00;99017.88;15293317;19;20546;-55
2024/02/01 02:49:20;;;;;;;1.23;0.80;;;;;;;5.51;100.00;99022.06;15286342;19;20020;-52
2024/02/01 02:54:54;;;;;;;1.85;0.90;;;;;;;5.61;100.00;99008.84;15291162;19;20017;-55
2024/02/01 03:00:21;;;;;;;3.08;1.00;;;;;;;5.66;100.00;99017.38;15289453;19;20077;-53
2024/02/01 03:05:45;;;;;;;1.23;0.80;;;;;;;5.74;100.00;99013.28;15284352;19;20020;-52
2024/02/01 03:11:13;;;;;;;1.75;0.80;;;;;;;5.79;100.00;99006.63;15291200;19;20024;-50
2024/02/01 03:16:37;;;;;;;1.35;0.85;;;;;;;5.83;100.00;99007.22;15295909;19;20725;-51
2024/02/01 03:22:02;;;;;;;2.05;0.88;;;;;;;5.80;100.00;99018.16;15290782;19;20014;-56
2024/02/01 03:27:30;;;;;;;1.50;0.88;;;;;;;5.69;100.00;99024.31;15294979;19;20082;-53
2024/02/01 03:32:55;;;;;;;2.35;1.15;;;;;;;5.63;100.00;99022.09;15288472;19;20485;-56
2024/02/01 03:38:19;;;;;;;1.63;1.13;;;;;;;5.49;100.00;99032.00;15028457;19;5002306;-53
2024/02/01 03:43:48;;;;;;;2.03;1.20;;;;;;;5.34;100.00;99043.84;15289035;19;20025;-54
2024/02/01 03:49:14;;;;;;;1.77;1.27;;;;;;;5.20;100.00;99053.72;15283915;19;20490;-55
2024/02/01 03:54:40;;;;;;;2.95;1.40;;;;;;;5.14;100.00;99055.97;15289508;19;20394;-54
2024/02/01 04:00:24;;;;;;;3.28;1.65;;;;;;;5.13;100.00;99073.78;15285152;19;20417;-55
2024/02/01 04:05:50;;;;;;;2.05;1.40;;;;;;;5.04;100.00;99083.34;15286260;19;20032;-56
2024/02/01 04:11:15;;;;;;;2.63;1.65;;;;;;;5.01;100.00;99096.03;15283604;19;20497;-54
2024/02/01 04:16:43;;;;;;;3.88;1.60;;;;;;;4.98;100.00;99097.13;15289181;19;20007;-52
2024/02/01 04:22:11;;;;;;;2.45;1.65;;;;;;;4.98;100.00;99104.28;15288941;19;20045;-54
2024/02/01 04:27:37;;;;;;;2.00;1.40;;;;;;;4.98;100.00;99125.66;15293580;19;20340;-56
2024/02/01 04:33:06;;;;;;;2.40;1.48;;;;;;;5.01;100.00;99141.44;15287827;19;20025;-57
2024/02/01 04:38:31;;;;;;;1.90;1.35;;;;;;;4.99;100.00;99151.41;15289155;19;20022;-57
2024/02/01 04:43:55;;;;;;;2.15;1.40;;;;;;;5.02;100.00;99167.19;15279955;19;20018;-56
2024/02/01 04:49:22;;;;;;;1.95;1.30;;;;;;;5.04;100.00;99159.94;15291404;19;20010;-56
2024/02/01 04:54:47;;;;;;;2.20;1.20;;;;;;;5.02;100.00;99172.53;15289385;19;20439;-55
2024/02/01 05:00:17;;;;;;;2.60;1.50;;;;;;;5.01;100.00;99168.16;15288670;19;20411;-58
2024/02/01 05:05:46;;;;;;;2.67;1.30;;;;;;;4.98;100.00;99169.22;15287469;19;20020;-55
2024/02/01 05:11:12;;;;;;;1.02;1.00;;;;;;;4.96;100.00;99172.97;15302792;19;20056;-58
2024/02/01 05:16:36;;;;;;;2.35;1.30;;;;;;;4.94;100.00;99184.63;15296200;19;20010;-58
2024/02/01 05:22:07;;;;;;;1.73;0.95;;;;;;;4.96;100.00;99179.16;15283470;19;20078;-58
2024/02/01 05:27:31;;;;;;;2.27;1.10;;;;;;;4.94;100.00;99186.41;15286762;19;20018;-57
2024/02/01 05:33:00;;;;;;;0.98;0.90;;;;;;;4.97;100.00;99174.69;15282367;19;20017;-58
2024/02/01 05:38:28;;;;;;;0.93;0.73;;;;;;;4.94;100.00;99194.41;15280421;19;20015;-54
2024/02/01 05:43:53;;;;;;;1.13;0.80;;;;;;;4.93;100.00;99193.59;15284708;19;20078;-55
2024/02/01 05:49:18;;;;;;;1.83;0.90;;;;;;;4.94;100.00;99205.97;15279482;19;20018;-55
2024/02/01 05:54:45;;;;;;;1.15;0.90;;;;;;;4.94;100.00;99208.66;15280121;19;20025;-57
2024/02/01 06:00:12;;;;;;;0.80;0.80;;;;;;;4.94;100.00;99229.13;15282532;19;20089;-58
2024/02/01 06:05:37;;;;;;;1.02;0.75;;;;;;;4.95;100.00;99225.50;15282115;19;20017;-55
2024/02/01 06:11:06;;;;;;;1.15;0.63;;;;;;;4.96;100.00;99247.75;15281740;19;20022;-56
2024/02/01 06:16:31;;;;;;;0.82;0.70;;;;;;;4.94;100.00;99243.34;15281795;19;20017;-57
2024/02/01 06:21:55;;;;;;;1.13;0.70;;;;;;;4.96;100.00;99248.59;15274277;19;20025;-57
2024/02/01 06:27:22;;;;;;;0.88;0.60;;;;;;;5.00;100.00;99252.75;15283948;19;20015;-56
2024/02/01 06:32:48;;;;;;;0.88;0.60;;;;;;;5.00;100.00;99260.78;15277880;19;20345;-55
2024/02/01 06:38:23;;;;;;;1.77;0.60;;;;;;;5.00;100.00;99249.25;15287446;19;20795;-54
2024/02/01 06:44:09;;;;;;;0.60;0.60;;;;;;;4.98;100.00;99251.16;15295350;19;20015;-54
2024/02/01 06:50:00;;;;;;;1.00;0.60;;;;;;;5.00;100.00;99262.59;15296787;19;20018;-55
2024/02/01 06:55:36;;;;;;;0.80;0.50;;;;;;;5.05;100.00;99263.13;15287224;19;20078;-55
2024/02/01 07:01:13;;;;;;;0.45;0.40;;;;;;;5.08;100.00;99271.78;15293346;19;20014;-53
2024/02/01 07:06:48;;;;;;;0.50;0.30;;;;;;;5.12;100.00;99282.25;15293147;19;20036;-55
2024/02/01 07:12:15;;;;;;;0.65;0.50;;;;;;;5.14;100.00;99293.72;15290250;19;20355;-57
2024/02/01 07:17:45;;;;;;;0.40;0.40;;;;;;;5.17;100.00;99298.84;15295356;19;20058;-56
2024/02/01 07:23:33;;;;;;;1.08;0.50;;;;;;;5.18;100.00;99301.41;15288885;19;20018;-56
2024/02/01 08:03:00;;;;;;;0.60;0.60;;;;;;;5.40;100.00;99364.94;15290507;19;20027;-56
2024/02/01 08:08:29;;;;;;;0.85;0.40;;;;;;;5.55;100.00;99379.03;15287984;19;20006;-56
2024/02/01 08:13:56;;;;;;;0.52;0.52;;;;;;;5.66;100.00;99390.81;15294247;19;20036;-58
2024/02/01 08:19:20;;;;;;;0.68;0.60;;;;;;;5.74;100.00;99404.50;15287136;19;20292;-57
2024/02/01 08:25:00;;;;;;;1.33;0.50;;;;;;;5.82;100.00;99394.13;15286263;19;20470;-58
2024/02/01 08:30:27;;;;;;;0.77;0.60;;;;;;;5.91;100.00;99400.66;15281869;19;20078;-56
2024/02/01 08:35:52;;;;;;;1.35;0.70;;;;;;;5.94;100.00;99410.31;15284871;19;20017;-56
2024/02/01 08:41:23;;;;;;;0.90;0.90;;;;;;;5.90;100.00;99411.47;15284887;19;20020;-57
2024/02/01 08:46:50;;;;;;;2.03;1.60;;;;;;;5.80;100.00;99408.56;15284765;19;20054;-56
2024/02/01 08:52:15;;;;;;;1.95;1.80;;;;;;;5.78;100.00;99421.19;15288104;19;20016;-58
2024/02/01 08:57:49;;;;;;;1.90;1.80;;;;;;;5.79;100.00;99429.13;15284340;19;20022;-57
2024/02/01 09:03:19;;;;;;;3.97;1.90;;;;;;;5.89;100.00;99455.22;15277232;19;20102;-56
2024/02/01 09:08:44;;;;;;;1.77;1.60;;;;;;;5.97;100.00;99466.22;15288202;19;20027;-55
2024/02/01 09:14:12;;;;;;;1.70;1.60;;;;;;;6.01;100.00;99473.13;15287109;19;20767;-58
2024/02/01 09:19:37;;;;;;;1.70;1.60;;;;;;;6.07;100.00;99467.34;15285459;19;20081;-58
2024/02/01 09:25:02;;;;;;;1.50;1.40;;;;;;;6.11;100.00;99459.97;15283884;19;20469;-59
2024/02/01 09:30:31;;;;;;;1.70;1.60;;;;;;;6.17;100.00;99460.38;15284198;19;20018;-57
2024/02/01 09:35:57;;;;;;;2.03;1.27;;;;;;;6.32;100.00;99462.94;15280889;19;20027;-57
2024/02/01 09:41:25;;;;;;;1.40;1.30;;;;;;;6.43;100.00;99481.78;15282031;19;20460;-58
2024/02/01 09:46:54;;;;;;;1.70;1.38;;;;;;;6.53;100.00;99475.75;15283494;19;20006;-57
2024/02/01 09:52:18;;;;;;;1.75;1.30;;;;;;;6.63;100.00;99476.84;15282424;19;20039;-59
2024/02/01 09:57:52;;;;;;;1.55;1.45;;;;;;;6.70;100.00;99464.72;15280444;19;20088;-59
2024/02/01 10:03:22;;;;;;;1.52;1.30;;;;;;;6.75;100.00;99465.25;15281847;19;20014;-57
2024/02/01 10:08:48;;;;;;;1.63;1.40;;;;;;;6.83;100.00;99455.78;15279152;19;20258;-58
2024/02/01 10:14:13;;;;;;;1.75;1.30;;;;;;;6.87;100.00;99460.81;15296461;19;20070;-56
2024/02/01 10:19:42;;;;;;;1.52;1.40;;;;;;;6.84;100.00;99458.34;15297123;19;20480;-58
2024/02/01 10:25:08;;;;;;;1.63;1.40;;;;;;;6.82;100.00;99435.31;15040401;19;5001726;-59
2024/02/01 10:30:36;;;;;;;1.75;1.20;;;;;;;6.82;100.00;99438.84;15295198;19;20024;-56
2024/02/01 10:36:12;;;;;;;1.88;1.30;;;;;;;6.82;100.00;99454.06;15297551;19;20094;-57
2024/02/01 10:41:40;;;;;;;1.85;1.10;;;;;;;6.75;100.00;99433.09;15290395;19;20493;-59
2024/02/01 10:47:12;;;;;;;1.73;1.10;;;;;;;6.85;100.00;99424.41;15292441;19;20475;-58
2024/02/01 10:52:43;;;;;;;1.95;1.10;;;;;;;6.99;100.00;99405.47;15287384;19;20392;-58
2024/02/01 10:58:16;;;;;;;1.25;0.85;;;;;;;7.11;100.00;99394.81;15299418;19;20021;-57
2024/02/01 11:03:45;;;;;;;2.60;1.00;;;;;;;7.25;100.00;99378.53;15296241;19;20078;-57
2024/02/01 11:09:22;;;;;;;1.58;0.75;;;;;;;7.43;100.00;99381.63;15291313;19;20024;-58
2024/02/01 11:14:51;;;;;;;0.95;0.70;;;;;;;7.45;100.00;99354.72;15298557;19;20070;-56
2024/02/01 11:20:19;;;;;;;1.48;0.80;;;;;;;7.33;100.00;99352.00;15296057;19;20084;-53
2024/02/01 11:25:49;;;;;;;1.88;1.00;;;;;;;7.36;100.00;99330.31;15290498;19;20007;-56
2024/02/01 11:31:15;;;;;;;1.65;0.95;;;;;;;7.39;100.00;99351.53;15292795;19;20092;-56
2024/02/01 11:36:56;;;;;;;2.20;0.77;;;;;;;7.14;100.00;99340.97;15290629;19;20021;-56
2024/02/01 11:42:24;;;;;;;1.98;0.70;;;;;;;6.83;100.00;99333.41;15284108;19;20018;-54
2024/02/01 11:47:53;;;;;;;2.08;0.70;;;;;;;6.63;100.00;99345.63;15287080;19;20102;-56
2024/02/01 11:53:18;;;;;;;0.73;0.50;;;;;;;6.58;100.00;99339.75;15291478;19;20077;-55
2024/02/01 11:58:46;;;;;;;2.83;0.98;;;;;;;6.70;100.00;99329.97;15282525;19;20359;-57
2024/02/01 12:04:16;;;;;;;3.33;1.00;;;;;;;6.84;100.00;99337.81;15291436;19;20368;-54
2024/02/01 12:09:41;;;;;;;1.88;0.85;;;;;;;7.01;100.00;99346.41;15285702;19;20519;-57
2024/02/01 12:15:09;;;;;;;1.80;0.90;;;;;;;7.07;100.00;99354.84;15278741;19;20024;-56
2024/02/01 12:20:41;;;;;;;3.40;0.82;;;;;;;7.18;100.00;99361.22;15287892;19;20011;-55
2024/02/01 12:26:05;;;;;;;4.13;0.87;;;;;;;7.31;100.00;99358.44;15287418;19;20933;-56
2024/02/01 12:31:33;;;;;;;2.25;0.90;;;;;;;7.31;100.00;99348.59;15282580;19;20720;-53
2024/02/01 12:36:57;;;;;;;3.53;0.90;;;;;;;7.38;100.00;99352.50;15287647;19;20014;-52
2024/02/01 12:42:23;;;;;;;5.75;1.20;;;;;;;7.42;100.00;99344.22;15285519;19;20018;-57
2024/02/01 12:47:51;;;;;;;2.58;1.08;;;;;;;7.44;100.00;99332.41;15280576;19;20015;-58
2024/02/01 12:53:17;;;;;;;3.13;1.05;;;;;;;7.44;100.00;99323.53;15284872;19;20475;-57
2024/02/01 12:58:42;;;;;;;3.67;1.00;;;;;;;7.46;100.00;99324.25;15288571;19;20037;-54
2024/02/01 13:04:10;;;;;;;4.93;1.30;;;;;;;7.47;100.00;99329.50;15289231;19;20562;-57
2024/02/01 13:09:38;;;;;;;3.45;1.00;;;;;;;7.45;100.00;99328.75;15287679;19;20090;-54
2024/02/01 13:15:05;;;;;;;2.38;0.88;;;;;;;7.44;100.00;99350.31;15281554;19;20404;-55
2024/02/01 13:20:33;;;;;;;2.97;0.90;;;;;;;7.45;100.00;99346.69;15278519;19;20014;-56
2024/02/01 13:25:58;;;;;;;6.50;1.10;;;;;;;7.60;100.00;99355.34;15282115;19;20024;-51
2024/02/01 13:31:25;;;;;;;3.17;0.95;;;;;;;7.65;100.00;99345.09;15280742;19;20014;-55
2024/02/01 13:36:54;;;;;;;4.03;1.35;;;;;;;7.62;100.00;99345.38;15284352;19;20751;-52
2024/02/01 13:42:25;;;;;;;4.32;0.85;;;;;;;7.55;100.00;99358.41;15284299;19;20082;-53
2024/02/01 13:47:54;;;;;;;3.73;1.30;;;;;;;7.55;100.00;99371.81;15292511;19;20031;-54
2024/02/01 13:53:22;;;;;;;3.28;0.80;;;;;;;7.56;100.00;99368.16;15285636;19;20015;-56
2024/02/01 13:58:47;;;;;;;5.30;1.10;;;;;;;7.64;100.00;99371.09;15296884;19;20495;-54
2024/02/01 14:04:11;;;;;;;3.10;1.00;;;;;;;7.64;100.00;99371.09;15299254;19;20467;-56
2024/02/01 14:09:39;;;;;;;3.45;0.90;;;;;;;7.73;100.00;99366.84;15289788;19;20018;-58
2024/02/01 14:15:03;;;;;;;4.28;1.00;;;;;;;7.80;100.00;99368.06;15299332;19;20055;-56
2024/02/01 14:20:28;;;;;;;4.38;1.10;;;;;;;7.92;100.00;99390.41;15292850;19;20026;-55
2024/02/01 14:25:55;;;;;;;3.72;0.90;;;;;;;7.87;100.00;99392.59;15290542;19;20014;-53
2024/02/01 14:31:20;;;;;;;3.53;0.80;;;;;;;7.80;100.00;99386.84;15289066;19;20479;-52
2024/02/01 14:36:45;;;;;;;3.58;0.80;;;;;;;7.83;100.00;99401.81;15298056;19;20014;-55
2024/02/01 14:42:13;;;;;;;3.38;1.00;;;;;;;7.78;100.00;99404.03;15293090;19;20051;-53
2024/02/01 14:47:37;;;;;;;3.58;1.10;;;;;;;7.76;100.00;99428.28;15292097;19;20007;-53
2024/02/01 14:53:03;;;;;;;5.25;0.90;;;;;;;7.72;100.00;99413.41;15291569;19;20015;-54
2024/02/01 14:58:37;;;;;;;1.90;0.75;;;;;;;7.72;100.00;99421.47;15284325;19;20053;-56
2024/02/01 15:04:02;;;;;;;4.50;1.20;;;;;;;7.59;100.00;99418.84;15293369;19;20100;-53
2024/02/01 15:09:26;;;;;;;3.85;1.15;;;;;;;7.47;100.00;99439.44;15289512;19;20015;-54
2024/02/01 15:15:03;;;;;;;5.45;1.20;;;;;;;7.34;100.00;99423.44;15293293;19;20014;-55
2024/02/01 15:20:33;;;;;;;5.15;1.10;;;;;;;7.23;100.00;99436.78;15291005;19;20015;-55
2024/02/01 15:26:01;;;;;;;4.40;1.13;;;;;;;7.05;100.00;99447.03;15292163;19;20502;-53
2024/02/01 15:31:28;;;;;;;4.55;1.30;;;;;;;6.85;100.00;99459.22;15285240;19;20090;-53
2024/02/01 15:36:53;;;;;;;6.28;1.67;;;;;;;6.55;100.00;99455.09;15289691;19;20356;-55
2024/02/01 15:42:18;;;;;;;5.97;1.50;;;;;;;6.27;100.00;99486.53;15287293;19;20040;-55
2024/02/01 15:47:47;;;;;;;6.82;1.70;;;;;;;6.05;100.00;99495.16;15289450;19;20038;-54
2024/02/01 15:53:14;;;;;;;6.30;1.52;;;;;;;5.94;100.00;99496.75;15287519;19;20025;-53
2024/02/01 15:58:46;;;;;;;8.15;1.85;;;;;;;5.81;100.00;99507.44;15290212;19;20011;-55
2024/02/01 16:04:14;;;;;;;8.00;1.85;;;;;;;5.65;100.00;99515.59;15289427;19;20307;-52
2024/02/01 16:09:39;;;;;;;8.20;1.90;;;;;;;5.53;100.00;99525.31;15287062;19;20014;-55
2024/02/01 16:15:09;;;;;;;9.20;2.08;;;;;;;5.42;100.00;99535.84;15285246;19;20722;-55
2024/02/01 16:20:50;;;;;;;8.20;1.55;;;;;;;5.37;100.00;99540.63;15287164;19;20082;-54
2024/02/01 16:26:17;;;;;;;7.03;1.80;;;;;;;5.32;100.00;99548.94;15267545;19;20017;-53
2024/02/01 16:31:41;;;;;;;9.85;2.10;;;;;;;5.25;100.00;99550.31;15279126;19;20015;-56
2024/02/01 16:37:09;;;;;;;8.80;1.95;;;;;;;5.12;100.00;99560.91;15288671;19;20025;-55
2024/02/01 16:42:41;;;;;;;7.50;2.00;;;;;;;5.03;100.00;99554.38;15282025;19;20337;-56
2024/02/01 16:48:15;;;;;;;8.60;1.95;;;;;;;4.94;100.00;99570.97;15278385;19;20025;-56
2024/02/01 16:54:00;;;;;;;11.30;2.28;;;;;;;4.79;100.00;99578.13;15279528;19;20013;-55
2024/02/01 16:59:27;;;;;;;8.60;2.05;;;;;;;4.68;100.00;99588.63;15279365;19;20026;-51
2024/02/01 17:04:53;;;;;;;11.55;2.50;;;;;;;4.60;100.00;99605.97;15282356;19;20373;-53
2024/02/01 17:10:40;;;;;;;13.55;2.60;;;;;;;4.49;100.00;99603.09;15292022;19;20011;-55
2024/02/01 17:16:05;;;;;;;8.13;2.58;;;;;;;4.41;100.00;99608.91;15298392;19;20097;-55
2024/02/01 17:21:31;;;;;;;11.35;2.30;;;;;;;4.37;100.00;99620.69;15283204;19;20370;-57
2024/02/01 17:27:04;;;;;;;8.02;1.80;;;;;;;4.39;100.00;99617.97;15284000;19;20006;-56
2024/02/01 17:32:34;;;;;;;9.27;2.00;;;;;;;4.48;100.00;99622.75;15283049;19;20010;-56
2024/02/01 17:37:59;;;;;;;12.53;2.50;;;;;;;4.47;100.00;99621.88;15280236;19;20036;-54
2024/02/01 17:43:30;;;;;;;8.02;2.75;;;;;;;4.46;100.00;99609.50;15280335;19;20307;-51
2024/02/01 17:49:03;;;;;;;12.18;2.58;;;;;;;4.47;100.00;99616.53;15277945;19;20024;-51
2024/02/01 17:54:33;;;;;;;8.05;2.05;;;;;;;4.46;100.00;99628.19;15283477;19;20083;-51
2024/02/01 18:00:00;;;;;;;10.48;2.13;;;;;;;4.44;100.00;99640.75;15281664;19;20010;-52
2024/02/01 18:05:33;;;;;;;7.68;2.05;;;;;;;4.45;100.00;99646.94;15283112;19;20129;-56
2024/02/01 18:10:59;;;;;;;7.93;2.17;;;;;;;4.43;100.00;99641.69;15276052;19;20041;-54
2024/02/01 18:16:29;;;;;;;11.73;2.10;;;;;;;4.44;100.00;99642.53;15280048;19;20118;-54
2024/02/01 18:21:54;;;;;;;9.35;2.20;;;;;;;4.44;100.00;99647.88;15275861;19;20046;-54
2024/02/01 18:27:23;;;;;;;9.32;2.00;;;;;;;4.45;100.00;99646.94;15280432;19;20760;-53
2024/02/01 18:32:50;;;;;;;7.28;1.92;;;;;;;4.47;100.00;99632.53;15281856;19;20369;-51
2024/02/01 18:38:46;;;;;;;8.73;2.30;;;;;;;4.45;100.00;99646.94;15297066;19;20023;-54
2024/02/01 18:44:31;;;;;;;12.15;2.10;;;;;;;4.43;100.00;99638.16;15291654;19;20039;-52
2024/02/01 18:50:07;;;;;;;8.48;2.00;;;;;;;4.41;100.00;99653.44;15288808;19;20514;-53
2024/02/01 19:01:25;;;;;;;9.02;2.00;;;;;;;4.29;100.00;99639.00;15290302;19;20058;-54
2024/02/01 19:06:54;;;;;;;10.23;2.50;;;;;;;4.19;100.00;99659.16;15291832;19;20035;-54
2024/02/01 19:12:32;;;;;;;8.38;1.92;;;;;;;4.20;100.00;99666.22;15285693;19;20114;-53
2024/02/01 19:17:59;;;;;;;7.93;1.98;;;;;;;4.19;100.00;99681.34;15290669;19;20676;-56
2024/02/01 19:23:31;;;;;;;8.23;2.05;;;;;;;4.11;100.00;99676.47;15290238;19;20035;-52
2024/02/01 19:29:00;;;;;;;7.67;2.23;;;;;;;4.06;100.00;99688.38;15289964;19;20251;-54
2024/02/01 19:34:36;;;;;;;9.32;2.13;;;;;;;3.96;100.00;99669.34;15293846;19;20288;-50
2024/02/01 19:40:05;;;;;;;8.77;2.03;;;;;;;3.82;100.00;99672.81;15292099;19;20090;-54
2024/02/01 19:45:29;;;;;;;7.70;2.17;;;;;;;3.67;100.00;99682.53;15286024;19;20676;-55
2024/02/01 19:50:55;;;;;;;7.68;1.80;;;;;;;3.59;100.00;99682.94;15288647;19;20023;-54
2024/02/01 19:56:22;;;;;;;12.65;2.28;;;;;;;3.58;100.00;99689.25;15291511;19;20011;-55
2024/02/01 20:01:53;;;;;;;8.35;2.00;;;;;;;3.54;100.00;99701.00;15286535;19;20034;-53
2024/02/01 20:07:19;;;;;;;8.77;1.90;;;;;;;3.54;100.00;99703.69;15289387;19;20711;-52
2024/02/01 20:12:46;;;;;;;9.30;2.05;;;;;;;3.53;100.00;99705.47;15286535;19;21609;-54
2024/02/01 20:18:15;;;;;;;11.43;2.10;;;;;;;3.58;100.00;99729.22;15283800;19;20105;-50
2024/02/01 20:23:41;;;;;;;7.72;2.05;;;;;;;3.60;100.00;99727.31;15290530;19;20037;-50
2024/02/01 20:29:11;;;;;;;10.18;2.15;;;;;;;3.59;100.00;99724.75;15286549;19;20017;-55
2024/02/01 20:34:42;;;;;;;9.18;1.95;;;;;;;3.59;100.00;99730.91;15290735;19;20018;-53
2024/02/01 20:40:35;;;;;;;13.73;2.40;;;;;;;3.55;100.00;99732.06;15286098;19;20014;-54
2024/02/01 20:46:03;;;;;;;16.13;2.40;;;;;;;3.51;100.00;99723.38;15287588;19;20077;-56
2024/02/01 20:51:50;;;;;;;11.73;2.45;;;;;;;3.50;100.00;99721.66;15277582;19;20023;-54
2024/02/01 20:57:35;;;;;;;11.07;2.17;;;;;;;3.52;100.00;99730.41;15284662;19;20461;-53
2024/02/01 21:03:05;;;;;;;7.82;1.77;;;;;;;3.52;100.00;99729.53;15282663;19;20027;-55
2024/02/01 21:08:41;;;;;;;10.60;2.05;;;;;;;3.62;100.00;99735.25;15282019;19;20417;-52
2024/02/01 21:14:19;;;;;;;12.18;2.08;;;;;;;3.68;100.00;99735.75;15284597;19;20689;-52
2024/02/01 21:19:46;;;;;;;9.15;2.08;;;;;;;3.72;100.00;99738.22;15284575;19;20010;-51
2024/02/01 21:25:49;;;;;;;9.82;2.40;;;;;;;3.76;100.00;99731.81;15281749;19;20035;-51
2024/02/01 21:31:53;;;;;;;12.88;2.40;;;;;;;3.76;100.00;99743.34;15279952;19;20962;-55
2024/02/01 21:37:23;;;;;;;11.52;2.42;;;;;;;3.75;100.00;99743.41;15281501;19;20018;-52
2024/02/01 21:43:08;;;;;;;13.05;2.50;;;;;;;3.68;100.00;99741.09;15278267;19;20074;-54
2024/02/01 21:48:33;;;;;;;10.73;2.38;;;;;;;3.69;100.00;99748.16;15278945;19;20021;-55
2024/02/01 21:54:00;;;;;;;8.30;2.20;;;;;;;3.75;100.00;99759.41;15277990;19;20027;-54
2024/02/01 21:59:25;;;;;;;10.63;2.10;;;;;;;3.80;100.00;99752.03;15279617;19;20042;-52
2024/02/01 22:04:49;;;;;;;10.48;2.25;;;;;;;3.84;100.00;99753.56;15282703;19;20037;-55
2024/02/01 22:10:17;;;;;;;15.75;2.67;;;;;;;3.81;100.00;99743.94;15295971;19;20014;-54
2024/02/01 22:15:42;;;;;;;8.80;2.10;;;;;;;3.83;100.00;99749.16;15300113;19;20110;-54
2024/02/01 22:21:07;;;;;;;11.18;2.30;;;;;;;3.84;100.00;99748.22;15296720;19;20681;-51
2024/02/01 22:26:34;;;;;;;12.63;2.35;;;;;;;3.84;100.00;99750.88;15286775;19;20025;-52
2024/02/01 22:31:59;;;;;;;9.60;2.08;;;;;;;3.82;100.00;99742.97;15284979;19;20031;-52
2024/02/01 22:37:25;;;;;;;10.90;2.42;;;;;;;3.80;100.00;99752.03;15291577;19;20340;-54
2024/02/01 22:42:53;;;;;;;11.00;2.40;;;;;;;3.83;100.00;99746.50;15288008;19;20018;-52
2024/02/01 22:48:18;;;;;;;9.57;2.30;;;;;;;3.87;100.00;99745.38;15290157;19;20090;-50
2024/02/01 22:53:44;;;;;;;10.45;2.00;;;;;;;3.85;100.00;99739.28;15297174;19;20015;-53
2024/02/01 22:59:19;;;;;;;11.25;2.28;;;;;;;3.84;100.00;99727.78;15286262;19;20035;-57
2024/02/01 23:04:44;;;;;;;9.52;2.20;;;;;;;3.90;100.00;99726.56;15295286;19;20306;-54
2024/02/01 23:10:09;;;;;;;9.68;2.28;;;;;;;3.92;100.00;99735.34;15291574;19;20106;-54
2024/02/01 23:15:37;;;;;;;11.15;2.15;;;;;;;3.92;100.00;99742.47;15295504;19;20019;-55
2024/02/01 23:21:03;;;;;;;10.13;2.00;;;;;;;3.87;100.00;99737.38;15292490;19;20074;-54
2024/02/01 23:26:28;;;;;;;13.18;2.15;;;;;;;3.85;100.00;99725.94;15286305;19;20043;-55
2024/02/01 23:31:56;;;;;;;9.85;2.17;;;;;;;3.83;100.00;99726.03;15280723;19;20010;-52
2024/02/01 23:37:20;;;;;;;11.27;2.17;;;;;;;3.81;100.00;99721.75;15291365;19;20014;-56
2024/02/01 23:42:46;;;;;;;10.52;2.80;;;;;;;3.79;100.00;99705.81;15284701;19;20014;-56
2024/02/01 23:48:13;;;;;;;11.80;2.55;;;;;;;3.73;100.00;99721.31;15289981;19;20014;-52
2024/02/01 23:53:38;;;;;;;11.90;2.83;;;;;;;3.69;100.00;99729.50;15283540;19;20025;-55
2024/02/01 23:59:02;;;;;;;10.45;2.55;;;;;;;3.64;100.00;99730.69;15287432;19;20022;-52
